Time;durP1;ratioP1;P1;durP2;ratioP2;P2;SDS_P1;SDS_P2;PMS_P1;PMS_P2;Temp;Humidity;BMP_temperature;BMP_pressure;BME280_temperature;BME280_humidity;BME280_pressure;Samples;Min_cycle;Max_cycle;Signal;HPM_P1;HPM_P2
2022/02/15 00:01:52;;;;;;;41.73;20.20;;;1.70;99.90;;;;;;4435304;32;20220;-73
2022/02/15 00:04:20;;;;;;;41.13;19.17;;;1.60;99.90;;;;;;4435716;32;20196;-72
2022/02/15 00:06:47;;;;;;;43.47;19.33;;;1.60;99.90;;;;;;4441457;32;20166;-72
2022/02/15 00:09:14;;;;;;;42.20;19.17;;;1.60;99.90;;;;;;4441414;32;20213;-74
2022/02/15 00:11:41;;;;;;;39.43;18.57;;;1.50;99.90;;;;;;4439708;32;20262;-72
2022/02/15 00:14:08;;;;;;;41.23;19.07;;;1.50;99.90;;;;;;4441358;32;20135;-73
2022/02/15 00:16:36;;;;;;;40.00;19.60;;;1.50;99.90;;;;;;4441355;32;20198;-72
2022/02/15 00:19:03;;;;;;;43.17;18.93;;;1.50;99.90;;;;;;4439895;32;20527;-72
2022/02/15 00:21:30;;;;;;;38.60;18.20;;;1.50;99.90;;;;;;4439746;32;20182;-72
2022/02/15 00:23:57;;;;;;;40.67;18.90;;;1.40;99.90;;;;;;4442433;32;20345;-73
2022/02/15 00:26:26;;;;;;;42.03;19.00;;;1.40;99.90;;;;;;4441308;32;20165;-72
2022/02/15 00:28:53;;;;;;;39.63;18.60;;;1.40;99.90;;;;;;4440788;32;20257;-72
2022/02/15 00:31:20;;;;;;;43.70;20.07;;;1.40;99.90;;;;;;4440405;32;20385;-72
2022/02/15 00:33:47;;;;;;;42.00;19.63;;;1.40;99.90;;;;;;4439848;32;20233;-72
2022/02/15 00:36:17;;;;;;;41.80;19.17;;;1.30;99.90;;;;;;4440334;32;20182;-72
2022/02/15 00:38:44;;;;;;;43.73;19.73;;;1.30;99.90;;;;;;4439869;32;20197;-72
2022/02/15 00:41:11;;;;;;;39.27;19.03;;;1.30;99.90;;;;;;4439894;32;20512;-72
2022/02/15 00:43:38;;;;;;;36.97;18.97;;;1.30;99.90;;;;;;4439864;32;20182;-72
2022/02/15 00:46:05;;;;;;;44.30;20.17;;;1.30;99.90;;;;;;4439551;32;20174;-72
2022/02/15 00:48:32;;;;;;;41.27;19.77;;;1.30;99.90;;;;;;4439405;32;20217;-72
2022/02/15 00:51:00;;;;;;;40.17;19.40;;;1.30;99.90;;;;;;4439503;32;20217;-72
2022/02/15 00:53:27;;;;;;;42.63;18.43;;;1.30;99.90;;;;;;4439118;32;20217;-72
2022/02/15 00:55:54;;;;;;;39.73;18.60;;;1.30;99.90;;;;;;4439923;32;20226;-72
2022/02/15 00:58:21;;;;;;;41.33;19.73;;;1.30;99.90;;;;;;4439381;32;20415;-72
2022/02/15 01:00:49;;;;;;;39.10;18.27;;;1.20;99.90;;;;;;4439609;32;20187;-72
2022/02/15 01:03:16;;;;;;;35.50;18.37;;;1.20;99.90;;;;;;4440346;32;20255;-72
2022/02/15 01:05:44;;;;;;;45.13;20.30;;;1.20;99.90;;;;;;4438964;32;20192;-72
2022/02/15 01:08:12;;;;;;;40.97;19.37;;;1.20;99.90;;;;;;4442080;32;20208;-71
2022/02/15 01:10:40;;;;;;;40.67;18.90;;;1.20;99.90;;;;;;4440014;32;20178;-72
2022/02/15 01:13:07;;;;;;;39.83;18.70;;;1.20;99.90;;;;;;4439105;32;20171;-72
2022/02/15 01:15:34;;;;;;;39.20;18.83;;;1.20;99.90;;;;;;4440658;32;20237;-72
2022/02/15 01:18:02;;;;;;;42.27;19.77;;;1.20;99.90;;;;;;4440233;32;20170;-72
2022/02/15 01:20:30;;;;;;;43.30;19.30;;;1.20;99.90;;;;;;4439376;32;20178;-72
2022/02/15 01:22:57;;;;;;;39.70;19.00;;;1.10;99.90;;;;;;4439339;32;20220;-72
2022/02/15 01:25:25;;;;;;;39.30;18.73;;;1.10;99.90;;;;;;4437547;32;20201;-73
2022/02/15 01:27:53;;;;;;;40.43;19.00;;;1.10;99.90;;;;;;4423956;32;20214;-72
2022/02/15 01:30:21;;;;;;;40.57;18.70;;;1.10;99.90;;;;;;4426459;32;20377;-72
2022/02/15 01:32:48;;;;;;;42.13;19.70;;;1.10;99.90;;;;;;4422849;32;20179;-72
2022/02/15 01:35:16;;;;;;;40.47;19.80;;;1.10;99.90;;;;;;4424336;32;20183;-72
2022/02/15 01:37:44;;;;;;;39.23;19.13;;;1.10;99.90;;;;;;4423160;32;20189;-72
2022/02/15 01:40:12;;;;;;;40.87;19.10;;;1.10;99.90;;;;;;4425450;32;20147;-72
2022/02/15 01:42:39;;;;;;;43.67;18.87;;;1.10;99.90;;;;;;4425267;32;20203;-72
2022/02/15 01:45:10;;;;;;;42.90;20.13;;;1.10;99.90;;;;;;4423647;32;20185;-72
2022/02/15 01:47:38;;;;;;;40.53;19.50;;;1.10;99.90;;;;;;4424758;32;20221;-72
2022/02/15 01:50:06;;;;;;;43.43;20.53;;;1.10;99.90;;;;;;4423830;32;20198;-72
2022/02/15 01:52:33;;;;;;;39.97;19.43;;;1.00;99.90;;;;;;4424266;32;20241;-72
2022/02/15 01:55:01;;;;;;;41.40;18.77;;;1.00;99.90;;;;;;4423488;32;20216;-72
2022/02/15 01:57:28;;;;;;;42.00;19.63;;;1.00;99.90;;;;;;4424772;32;20198;-72
2022/02/15 01:59:57;;;;;;;46.03;19.77;;;1.00;99.90;;;;;;4424500;32;20199;-72
2022/02/15 02:02:26;;;;;;;41.83;19.27;;;1.00;99.90;;;;;;4423089;32;20183;-72
2022/02/15 02:07:40;;;;;;;42.87;19.73;;;1.00;99.90;;;;;;4423363;32;20555;-72
2022/02/15 02:10:07;;;;;;;43.20;20.13;;;1.00;99.90;;;;;;4423493;32;20232;-72
2022/02/15 02:12:35;;;;;;;41.67;19.93;;;0.90;99.90;;;;;;4424290;32;20151;-73
2022/02/15 02:15:06;;;;;;;38.43;19.20;;;0.90;99.90;;;;;;4424295;32;20220;-73
2022/02/15 02:17:34;;;;;;;42.40;19.83;;;0.90;99.90;;;;;;4423368;32;20260;-72
2022/02/15 02:20:02;;;;;;;42.07;20.67;;;0.90;99.90;;;;;;4423961;32;20563;-73
2022/02/15 02:22:30;;;;;;;48.13;20.93;;;0.90;99.90;;;;;;4423462;32;20193;-73
2022/02/15 02:24:59;;;;;;;39.07;19.47;;;0.90;99.90;;;;;;4423075;32;20186;-73
2022/02/15 02:27:29;;;;;;;41.93;20.47;;;0.90;99.90;;;;;;4422790;32;20204;-72
2022/02/15 02:29:57;;;;;;;40.97;19.40;;;0.90;99.90;;;;;;4422564;32;20511;-72
2022/02/15 02:32:26;;;;;;;45.77;20.67;;;0.90;99.90;;;;;;4422742;32;20205;-72
2022/02/15 02:34:53;;;;;;;43.00;20.13;;;0.90;99.90;;;;;;4424551;32;20213;-72
2022/02/15 02:37:21;;;;;;;44.67;20.70;;;0.90;99.90;;;;;;4424295;32;20163;-72
2022/02/15 02:39:52;;;;;;;45.90;20.90;;;0.90;99.90;;;;;;4423772;32;20189;-72
2022/02/15 02:42:26;;;;;;;44.27;20.50;;;0.90;99.90;;;;;;4422688;32;20200;-72
2022/02/15 02:44:55;;;;;;;40.87;19.53;;;0.90;99.90;;;;;;4423159;32;20170;-72
2022/02/15 02:47:22;;;;;;;43.83;20.60;;;0.90;99.90;;;;;;4422305;32;20225;-72
2022/02/15 02:49:49;;;;;;;42.40;19.63;;;0.90;99.90;;;;;;4423766;32;20193;-72
2022/02/15 02:52:17;;;;;;;46.50;20.40;;;0.90;99.90;;;;;;4427215;32;20146;-72
2022/02/15 02:54:44;;;;;;;44.57;20.77;;;0.90;99.90;;;;;;4427380;32;20196;-72
2022/02/15 02:57:12;;;;;;;44.00;20.57;;;0.90;99.90;;;;;;4426774;32;20166;-72
2022/02/15 02:59:40;;;;;;;41.50;20.37;;;0.90;99.90;;;;;;4426367;32;20205;-72
2022/02/15 03:02:09;;;;;;;47.37;20.30;;;0.90;99.90;;;;;;4425625;32;20190;-72
2022/02/15 03:04:40;;;;;;;43.80;20.90;;;0.90;99.90;;;;;;4425832;32;20185;-72
2022/02/15 03:07:07;;;;;;;44.30;20.40;;;0.90;99.90;;;;;;4426133;32;20174;-73
2022/02/15 03:09:34;;;;;;;42.73;21.00;;;0.90;99.90;;;;;;4425743;32;20167;-73
2022/02/15 03:12:04;;;;;;;44.73;20.30;;;0.90;99.90;;;;;;4425216;32;20220;-73
2022/02/15 03:14:31;;;;;;;46.27;20.60;;;0.80;99.90;;;;;;4426260;32;20183;-72
2022/02/15 03:16:58;;;;;;;44.93;21.20;;;0.80;99.90;;;;;;4425220;32;20185;-72
2022/02/15 03:19:25;;;;;;;44.90;21.03;;;0.80;99.90;;;;;;4425455;32;20182;-73
2022/02/15 03:21:52;;;;;;;43.90;20.50;;;0.80;99.90;;;;;;4426562;32;20485;-72
2022/02/15 03:24:19;;;;;;;46.70;21.07;;;0.80;99.90;;;;;;4426879;32;20386;-72
2022/02/15 03:26:46;;;;;;;42.10;21.10;;;0.80;99.90;;;;;;4413279;32;20205;-72
2022/02/15 03:29:13;;;;;;;42.53;20.60;;;0.80;99.90;;;;;;4425904;32;20179;-72
2022/02/15 03:31:41;;;;;;;43.53;20.80;;;0.80;99.90;;;;;;4426735;32;20178;-72
2022/02/15 03:34:08;;;;;;;43.07;20.93;;;0.70;99.90;;;;;;4427395;32;20139;-72
2022/02/15 03:36:35;;;;;;;47.17;22.07;;;0.80;99.90;;;;;;4428107;32;20147;-72
2022/02/15 03:39:05;;;;;;;46.10;20.50;;;0.80;99.90;;;;;;4426625;32;20215;-72
2022/02/15 03:44:18;;;;;;;45.77;20.83;;;0.80;99.90;;;;;;4424984;32;20575;-72
2022/02/15 03:46:45;;;;;;;46.33;21.07;;;0.70;99.90;;;;;;4427731;32;20174;-72
2022/02/15 03:49:12;;;;;;;45.10;21.63;;;0.70;99.90;;;;;;4427376;32;20171;-72
2022/02/15 03:51:39;;;;;;;46.30;20.97;;;0.70;99.90;;;;;;4425357;32;20218;-72
2022/02/15 03:54:07;;;;;;;43.87;21.10;;;0.70;99.90;;;;;;4424633;32;20482;-72
2022/02/15 03:56:35;;;;;;;47.93;20.73;;;0.70;99.90;;;;;;4425578;32;20205;-72
2022/02/15 03:59:04;;;;;;;45.80;21.67;;;0.70;99.90;;;;;;4426362;32;20218;-72
2022/02/15 04:01:34;;;;;;;41.67;19.93;;;0.60;99.90;;;;;;4423779;32;20171;-73
2022/02/15 04:04:01;;;;;;;48.07;20.70;;;0.60;99.90;;;;;;4424311;32;20227;-72
2022/02/15 04:06:28;;;;;;;45.37;21.00;;;0.60;99.90;;;;;;4426501;32;20429;-72
2022/02/15 04:08:56;;;;;;;46.40;21.93;;;0.60;99.90;;;;;;4425161;32;20174;-73
2022/02/15 04:11:23;;;;;;;46.57;20.67;;;0.60;99.90;;;;;;4427711;32;20205;-72
2022/02/15 04:13:50;;;;;;;40.97;19.70;;;0.60;99.90;;;;;;4424502;32;20192;-72
2022/02/15 04:16:17;;;;;;;40.37;20.33;;;0.60;99.90;;;;;;4424502;32;20214;-73
2022/02/15 04:18:47;;;;;;;43.97;21.47;;;0.60;99.90;;;;;;4424139;32;20199;-72
2022/02/15 04:21:20;;;;;;;42.83;21.53;;;0.60;99.90;;;;;;4425347;32;20171;-72
2022/02/15 04:23:48;;;;;;;43.67;20.47;;;0.60;99.90;;;;;;4414015;32;20219;-72
2022/02/15 04:26:16;;;;;;;44.73;20.70;;;0.50;99.90;;;;;;4426227;32;20135;-72
2022/02/15 04:28:43;;;;;;;44.60;21.40;;;0.50;99.90;;;;;;4425961;32;20206;-72
2022/02/15 04:31:11;;;;;;;46.87;20.73;;;0.60;99.90;;;;;;4425217;32;20405;-72
2022/02/15 04:33:38;;;;;;;43.97;21.40;;;0.60;99.90;;;;;;4424729;32;20193;-72
2022/02/15 04:36:05;;;;;;;46.43;21.93;;;0.60;99.90;;;;;;4424830;32;20185;-72
2022/02/15 04:38:32;;;;;;;44.50;20.77;;;0.60;99.90;;;;;;4424397;32;20175;-72
2022/02/15 04:41:00;;;;;;;47.50;20.83;;;0.50;99.90;;;;;;4424227;32;20543;-72
2022/02/15 04:43:27;;;;;;;46.33;21.20;;;0.60;99.90;;;;;;4424635;32;20209;-72
2022/02/15 04:45:54;;;;;;;43.17;20.23;;;0.60;99.90;;;;;;4423658;32;20235;-72
2022/02/15 04:48:23;;;;;;;45.93;21.00;;;0.60;99.90;;;;;;4438391;32;20194;-72
2022/02/15 04:50:51;;;;;;;43.30;20.30;;;0.60;99.90;;;;;;4426016;32;20423;-72
2022/02/15 04:53:17;;;;;;;45.30;21.57;;;0.60;99.90;;;;;;4423875;32;20175;-72
2022/02/15 04:55:45;;;;;;;45.07;19.83;;;0.60;99.90;;;;;;4423537;32;20204;-72
2022/02/15 04:58:12;;;;;;;45.37;20.27;;;0.60;99.90;;;;;;4424559;32;20452;-72
2022/02/15 05:00:41;;;;;;;45.07;21.43;;;0.50;99.90;;;;;;4425675;32;20480;-72
2022/02/15 05:03:08;;;;;;;43.20;20.03;;;0.50;99.90;;;;;;4425215;32;20224;-72
2022/02/15 05:05:35;;;;;;;45.70;21.03;;;0.50;99.90;;;;;;4425330;32;20162;-72
2022/02/15 05:08:03;;;;;;;44.33;20.53;;;0.50;99.90;;;;;;4425703;32;20212;-72
2022/02/15 05:10:32;;;;;;;44.10;21.23;;;0.40;99.90;;;;;;4424486;32;20174;-72
2022/02/15 05:13:01;;;;;;;45.50;20.73;;;0.50;99.90;;;;;;4423310;32;20208;-73
2022/02/15 05:15:28;;;;;;;45.63;21.03;;;0.50;99.90;;;;;;4424566;32;20186;-72
2022/02/15 05:17:55;;;;;;;42.47;20.47;;;0.50;99.90;;;;;;4423596;32;20197;-72
2022/02/15 05:20:22;;;;;;;48.70;22.03;;;0.40;99.90;;;;;;4424638;32;20179;-72
2022/02/15 05:22:51;;;;;;;45.70;20.50;;;0.40;99.90;;;;;;4423392;32;20416;-72
2022/02/15 05:25:18;;;;;;;48.10;21.50;;;0.40;99.90;;;;;;4423079;32;20182;-72
2022/02/15 05:27:45;;;;;;;44.67;20.90;;;0.50;99.90;;;;;;4426501;32;20147;-73
2022/02/15 05:30:13;;;;;;;45.40;20.80;;;0.40;99.90;;;;;;4423214;32;20182;-72
2022/02/15 05:32:41;;;;;;;45.90;22.20;;;0.40;99.90;;;;;;4424078;32;20194;-72
2022/02/15 05:35:09;;;;;;;52.10;22.20;;;0.30;99.90;;;;;;4424005;32;20178;-74
2022/02/15 05:37:36;;;;;;;47.27;21.10;;;0.30;99.90;;;;;;4423941;32;20171;-74
2022/02/15 05:40:05;;;;;;;47.97;21.10;;;0.30;99.90;;;;;;4426167;32;20139;-74
2022/02/15 05:42:33;;;;;;;47.40;21.13;;;0.30;99.90;;;;;;4423295;32;20516;-74
2022/02/15 05:45:00;;;;;;;46.30;21.60;;;0.20;99.90;;;;;;4424348;32;20427;-74
2022/02/15 05:47:27;;;;;;;44.47;20.53;;;0.20;99.90;;;;;;4426100;32;20190;-74
2022/02/15 05:52:40;;;;;;;46.30;20.47;;;0.20;99.90;;;;;;4422718;32;20182;-74
2022/02/15 05:55:08;;;;;;;48.30;20.73;;;0.20;99.90;;;;;;4422727;32;20444;-73
2022/02/15 05:57:35;;;;;;;46.97;21.10;;;0.20;99.90;;;;;;4425256;32;20179;-73
2022/02/15 06:00:05;;;;;;;46.17;21.23;;;0.20;99.90;;;;;;4424212;32;20226;-73
2022/02/15 06:02:32;;;;;;;44.23;18.93;;;0.20;99.90;;;;;;4423200;32;20206;-74
2022/02/15 06:04:59;;;;;;;46.80;20.57;;;0.20;99.90;;;;;;4423059;32;20197;-74
2022/02/15 06:07:25;;;;;;;45.47;20.47;;;0.30;99.90;;;;;;4424077;32;20183;-73
2022/02/15 06:09:53;;;;;;;45.40;20.20;;;0.30;99.90;;;;;;4422984;32;20186;-73
2022/02/15 06:12:20;;;;;;;44.50;20.30;;;0.30;99.90;;;;;;4424192;32;20175;-73
2022/02/15 06:14:47;;;;;;;49.07;20.30;;;0.30;99.90;;;;;;4425448;32;20154;-73
2022/02/15 06:17:14;;;;;;;43.13;20.57;;;0.30;99.90;;;;;;4424489;32;20244;-73
2022/02/15 06:19:41;;;;;;;41.63;19.63;;;0.30;99.90;;;;;;4423053;32;20177;-73
2022/02/15 06:22:08;;;;;;;40.93;19.47;;;0.30;99.90;;;;;;4424426;32;20608;-73
2022/02/15 06:24:35;;;;;;;43.40;20.17;;;0.20;99.90;;;;;;4422134;32;20210;-73
2022/02/15 06:27:02;;;;;;;44.43;20.23;;;0.20;99.90;;;;;;4423141;32;20577;-73
2022/02/15 06:29:31;;;;;;;39.60;19.33;;;0.20;99.90;;;;;;4423345;32;20208;-73
2022/02/15 06:31:58;;;;;;;44.53;19.70;;;0.20;99.90;;;;;;4422420;32;20191;-73
2022/02/15 06:34:25;;;;;;;45.03;19.87;;;0.30;99.90;;;;;;4423973;32;20178;-73
2022/02/15 06:36:53;;;;;;;43.10;20.00;;;0.30;99.90;;;;;;4424151;32;20178;-73
2022/02/15 06:39:20;;;;;;;40.53;19.27;;;0.30;99.90;;;;;;4423078;32;20186;-73
2022/02/15 06:41:47;;;;;;;40.13;19.00;;;0.30;99.90;;;;;;4423971;32;20171;-73
2022/02/15 06:44:14;;;;;;;43.07;19.33;;;0.30;99.90;;;;;;4422437;32;20221;-73
2022/02/15 06:46:42;;;;;;;46.23;20.10;;;0.30;99.90;;;;;;4422848;32;20166;-73
2022/02/15 06:49:09;;;;;;;40.23;18.87;;;0.40;99.90;;;;;;4422967;32;20193;-73
2022/02/15 06:51:35;;;;;;;44.37;19.73;;;0.40;99.90;;;;;;4424461;32;20188;-73
2022/02/15 06:54:03;;;;;;;44.90;19.57;;;0.40;99.90;;;;;;4422645;32;20237;-73
2022/02/15 06:56:31;;;;;;;39.30;18.90;;;0.40;99.90;;;;;;4422720;32;20183;-73
2022/02/15 06:58:58;;;;;;;44.50;19.03;;;0.50;99.90;;;;;;4422362;32;20243;-74
2022/02/15 07:01:25;;;;;;;40.67;19.60;;;0.50;99.90;;;;;;4424933;32;20261;-73
2022/02/15 07:03:52;;;;;;;39.53;18.17;;;0.60;99.90;;;;;;4425203;32;20197;-73
2022/02/15 07:06:19;;;;;;;45.00;20.07;;;0.70;99.90;;;;;;4423444;32;20235;-73
2022/02/15 07:08:46;;;;;;;43.37;19.27;;;0.70;99.90;;;;;;4422877;32;20174;-73
2022/02/15 07:11:13;;;;;;;43.73;20.13;;;0.70;99.90;;;;;;4424027;32;20189;-73
2022/02/15 07:13:40;;;;;;;38.70;19.20;;;0.80;99.90;;;;;;4424110;32;20451;-73
2022/02/15 07:16:07;;;;;;;36.60;18.13;;;0.90;99.90;;;;;;4423602;32;20219;-73
2022/02/15 07:18:34;;;;;;;39.47;18.50;;;0.90;99.90;;;;;;4421936;32;20170;-73
2022/02/15 07:21:01;;;;;;;42.03;19.53;;;1.00;99.90;;;;;;4423734;32;20182;-73
2022/02/15 07:23:28;;;;;;;39.30;18.00;;;1.00;99.90;;;;;;4423890;32;20265;-73
2022/02/15 07:25:55;;;;;;;37.10;18.50;;;1.10;99.90;;;;;;4423699;32;20792;-73
2022/02/15 07:28:22;;;;;;;36.67;17.90;;;1.10;99.90;;;;;;4424563;32;20147;-73
2022/02/15 07:30:48;;;;;;;37.13;17.93;;;1.20;99.90;;;;;;4423897;32;20163;-73
2022/02/15 07:33:15;;;;;;;39.63;18.43;;;1.30;99.90;;;;;;4424792;32;20178;-74
2022/02/15 07:35:43;;;;;;;38.97;18.20;;;1.40;99.90;;;;;;4436422;32;20430;-73
2022/02/15 07:38:10;;;;;;;38.87;18.13;;;1.50;99.90;;;;;;4424971;32;20179;-73
2022/02/15 07:40:37;;;;;;;37.10;18.20;;;1.60;99.90;;;;;;4424913;32;20174;-73
2022/02/15 07:43:04;;;;;;;42.40;18.93;;;1.60;99.90;;;;;;4425476;32;20178;-73
2022/02/15 07:45:31;;;;;;;40.87;19.57;;;1.70;99.90;;;;;;4426188;32;20190;-72
2022/02/15 07:47:58;;;;;;;36.80;18.63;;;1.70;99.90;;;;;;4424964;32;20239;-72
2022/02/15 07:50:25;;;;;;;39.33;18.40;;;1.80;99.90;;;;;;4426192;32;20434;-72
2022/02/15 07:52:53;;;;;;;35.90;17.47;;;1.90;99.90;;;;;;4426195;32;20503;-72
2022/02/15 07:55:21;;;;;;;37.73;17.73;;;2.00;99.90;;;;;;4426048;32;20193;-72
2022/02/15 07:57:48;;;;;;;39.33;17.77;;;2.00;99.90;;;;;;4424956;32;20604;-72
2022/02/15 08:00:21;;;;;;;35.27;17.90;;;2.10;99.90;;;;;;4424237;32;20217;-72
2022/02/15 08:02:50;;;;;;;38.07;18.17;;;2.30;99.90;;;;;;4425013;32;20182;-72
2022/02/15 08:05:17;;;;;;;34.63;17.67;;;2.30;99.90;;;;;;4425667;32;20208;-72
2022/02/15 08:07:52;;;;;;;35.73;18.70;;;2.40;99.90;;;;;;4425372;32;20171;-72
2022/02/15 08:10:20;;;;;;;36.20;17.90;;;2.50;99.90;;;;;;4423911;32;20453;-72
2022/02/15 08:12:55;;;;;;;38.10;17.50;;;2.60;99.90;;;;;;4423917;32;20242;-73
2022/02/15 08:15:24;;;;;;;38.97;18.10;;;2.70;99.90;;;;;;4425694;32;20157;-72
2022/02/15 08:17:51;;;;;;;35.80;18.03;;;2.90;99.90;;;;;;4425205;32;20155;-72
2022/02/15 08:20:18;;;;;;;38.63;18.30;;;3.30;99.90;;;;;;4424335;32;20213;-73
2022/02/15 08:22:45;;;;;;;37.07;17.70;;;3.80;99.90;;;;;;4425382;32;20186;-72
2022/02/15 08:25:13;;;;;;;36.10;18.17;;;4.20;99.90;;;;;;4424294;32;20175;-73
2022/02/15 08:27:40;;;;;;;33.00;16.73;;;4.50;99.90;;;;;;4425122;32;20231;-73
2022/02/15 08:30:07;;;;;;;32.87;17.67;;;4.90;99.90;;;;;;4425144;32;20246;-73
2022/02/15 08:32:34;;;;;;;33.63;16.47;;;5.20;99.90;;;;;;4424881;32;20163;-73
2022/02/15 08:35:01;;;;;;;31.93;17.37;;;5.60;99.90;;;;;;4425287;32;20163;-72
2022/02/15 08:37:29;;;;;;;35.83;17.87;;;5.70;99.90;;;;;;4424983;32;20180;-73
2022/02/15 08:39:55;;;;;;;33.50;16.70;;;6.00;99.90;;;;;;4425845;32;20149;-74
2022/02/15 08:42:22;;;;;;;29.87;16.67;;;6.30;99.90;;;;;;4426685;32;20399;-73
2022/02/15 08:44:53;;;;;;;32.37;17.27;;;6.40;99.90;;;;;;4423619;32;20230;-73
2022/02/15 08:47:22;;;;;;;31.83;16.43;;;6.80;99.90;;;;;;4425126;32;20171;-73
2022/02/15 08:49:51;;;;;;;32.63;16.90;;;7.20;99.90;;;;;;4424549;32;20198;-73
2022/02/15 08:52:19;;;;;;;30.50;16.77;;;7.60;99.90;;;;;;4424602;32;20171;-73
2022/02/15 08:54:47;;;;;;;28.00;16.10;;;7.80;99.90;;;;;;4425427;32;20433;-73
2022/02/15 08:57:15;;;;;;;30.20;16.53;;;7.90;99.90;;;;;;4425330;32;20175;-72
2022/02/15 08:59:45;;;;;;;28.77;15.63;;;8.20;99.90;;;;;;4425156;32;20186;-72
2022/02/15 09:02:11;;;;;;;28.87;15.77;;;8.30;99.90;;;;;;4424561;32;20180;-72
2022/02/15 09:04:39;;;;;;;32.10;16.03;;;8.20;99.90;;;;;;4424979;32;20220;-73
2022/02/15 09:07:07;;;;;;;29.00;15.80;;;8.20;99.90;;;;;;4425622;32;20198;-69
2022/02/15 09:09:34;;;;;;;31.50;15.87;;;8.20;99.90;;;;;;4425161;32;20194;-69
2022/02/15 09:12:02;;;;;;;31.13;15.80;;;8.30;99.90;;;;;;4424281;32;20185;-69
2022/02/15 09:14:31;;;;;;;28.60;15.50;;;8.50;99.90;;;;;;4423587;32;20201;-69
2022/02/15 09:17:02;;;;;;;31.67;15.93;;;8.70;99.90;;;;;;4424859;32;20179;-69
2022/02/15 09:19:29;;;;;;;31.93;16.03;;;8.90;99.90;;;;;;4426438;32;20143;-70
2022/02/15 09:21:56;;;;;;;29.77;15.27;;;8.50;99.90;;;;;;4423201;32;20551;-69
2022/02/15 09:24:23;;;;;;;31.53;16.23;;;8.10;99.90;;;;;;4423018;32;20240;-69
2022/02/15 09:26:53;;;;;;;29.10;16.53;;;8.10;99.90;;;;;;4424788;32;20150;-71
2022/02/15 09:29:20;;;;;;;30.77;15.60;;;8.00;99.90;;;;;;4423602;32;20505;-71
2022/02/15 09:31:47;;;;;;;29.23;15.63;;;7.60;99.90;;;;;;4425101;32;20261;-72
2022/02/15 09:34:14;;;;;;;29.63;15.60;;;7.30;99.90;;;;;;4423027;32;20226;-71
2022/02/15 09:36:41;;;;;;;32.77;16.33;;;7.30;99.90;;;;;;4423817;32;20197;-71
2022/02/15 09:39:08;;;;;;;32.17;16.53;;;7.10;99.90;;;;;;4423773;32;20174;-72
2022/02/15 09:41:35;;;;;;;28.57;16.43;;;7.10;99.90;;;;;;4425448;32;20148;-71
2022/02/15 09:44:05;;;;;;;29.80;16.20;;;7.10;99.90;;;;;;4424367;32;20170;-71
2022/02/15 09:46:34;;;;;;;30.60;16.40;;;7.40;99.90;;;;;;4423089;32;20206;-70
2022/02/15 09:49:01;;;;;;;28.43;16.00;;;7.50;99.90;;;;;;4423803;32;20187;-70
2022/02/15 09:51:29;;;;;;;26.37;15.07;;;7.40;99.90;;;;;;4423651;32;20182;-71
2022/02/15 09:53:56;;;;;;;35.10;17.50;;;7.60;99.90;;;;;;4423887;32;20151;-71
2022/02/15 09:56:23;;;;;;;31.03;16.13;;;7.80;99.90;;;;;;4424301;32;20180;-71
2022/02/15 09:58:50;;;;;;;31.20;15.63;;;8.10;99.90;;;;;;4424672;32;20181;-71
2022/02/15 10:01:18;;;;;;;29.83;16.43;;;8.30;99.90;;;;;;4422019;32;20186;-70
2022/02/15 10:03:58;;;;;;;29.60;15.93;;;8.40;99.90;;;;;;4423568;32;20190;-70
2022/02/15 10:06:31;;;;;;;32.13;15.93;;;8.10;99.90;;;;;;4426107;32;20476;-71
2022/02/15 10:09:00;;;;;;;29.93;16.07;;;7.90;99.90;;;;;;4422993;32;20215;-70
2022/02/15 10:11:53;;;;;;;34.10;17.03;;;7.60;99.90;;;;;;4424031;32;20220;-70
2022/02/15 10:14:20;;;;;;;30.60;16.27;;;7.40;99.90;;;;;;4419978;32;20174;-70
2022/02/15 10:16:52;;;;;;;29.67;15.50;;;7.50;99.90;;;;;;4424100;32;20213;-71
2022/02/15 10:19:27;;;;;;;29.40;16.23;;;7.50;99.90;;;;;;4424488;32;20154;-70
2022/02/15 10:21:56;;;;;;;30.63;16.57;;;7.30;99.90;;;;;;4424379;32;20184;-71
2022/02/15 10:24:31;;;;;;;30.07;17.13;;;7.30;99.90;;;;;;4422129;32;20197;-71
2022/02/15 10:26:59;;;;;;;32.00;16.30;;;7.00;99.90;;;;;;4424118;32;20401;-70
2022/02/15 10:29:28;;;;;;;33.63;17.40;;;7.00;99.90;;;;;;4424276;32;20464;-70
2022/02/15 10:32:03;;;;;;;33.33;17.33;;;7.00;99.90;;;;;;4423593;32;20192;-70
2022/02/15 10:34:31;;;;;;;32.30;16.63;;;6.90;99.90;;;;;;4422617;32;20222;-70
2022/02/15 10:37:04;;;;;;;31.23;16.57;;;6.80;99.90;;;;;;4424092;32;20171;-70
2022/02/15 10:39:42;;;;;;;34.03;17.63;;;6.80;99.90;;;;;;4425433;32;20146;-70
2022/02/15 10:42:17;;;;;;;32.10;16.57;;;6.80;99.90;;;;;;4424206;32;20253;-71
2022/02/15 10:45:02;;;;;;;33.70;16.93;;;6.70;99.90;;;;;;4423664;32;20249;-70
2022/02/15 10:47:35;;;;;;;30.53;16.20;;;6.70;99.90;;;;;;4422500;32;20181;-71
2022/02/15 10:50:08;;;;;;;31.80;17.17;;;6.70;99.90;;;;;;4422393;32;20205;-70
2022/02/15 10:52:36;;;;;;;34.43;17.30;;;6.70;99.90;;;;;;4424635;32;20168;-70
2022/02/15 10:55:04;;;;;;;33.53;17.40;;;6.60;99.90;;;;;;4422588;32;20182;-70
2022/02/15 10:57:31;;;;;;;30.63;16.80;;;6.60;99.90;;;;;;4425156;32;20148;-70
2022/02/15 11:00:01;;;;;;;34.97;17.47;;;6.60;99.90;;;;;;4423756;32;20168;-70
2022/02/15 11:02:35;;;;;;;32.07;17.33;;;6.60;99.90;;;;;;4422591;32;20210;-70
2022/02/15 11:05:06;;;;;;;33.83;17.90;;;6.70;99.90;;;;;;4423392;32;20205;-70
2022/02/15 11:07:36;;;;;;;33.37;17.07;;;6.80;99.90;;;;;;4423727;32;20191;-69
2022/02/15 11:10:12;;;;;;;32.10;17.17;;;6.90;99.90;;;;;;4422046;32;20178;-69
2022/02/15 11:12:45;;;;;;;33.03;16.33;;;7.00;99.90;;;;;;4427582;32;20153;-70
2022/02/15 11:15:18;;;;;;;31.53;16.63;;;7.20;99.90;;;;;;4425734;32;20201;-70
2022/02/15 11:17:50;;;;;;;32.77;17.63;;;7.40;99.90;;;;;;4425888;32;20200;-70
2022/02/15 11:20:19;;;;;;;32.10;16.90;;;7.50;99.90;;;;;;4425701;32;20213;-70
2022/02/15 11:22:50;;;;;;;34.00;17.97;;;7.70;99.90;;;;;;4426860;32;20547;-71
2022/02/15 11:25:35;;;;;;;33.00;16.63;;;7.80;99.90;;;;;;4426304;32;20393;-70
2022/02/15 11:28:11;;;;;;;31.97;16.43;;;8.00;99.90;;;;;;4425307;32;20174;-70
2022/02/15 11:30:54;;;;;;;31.27;16.70;;;8.70;99.90;;;;;;4425871;32;20344;-71
2022/02/15 11:33:29;;;;;;;30.83;16.40;;;9.60;99.90;;;;;;4425306;32;20193;-71
2022/02/15 11:36:13;;;;;;;35.83;17.10;;;10.40;99.90;;;;;;4425065;32;20212;-71
2022/02/15 11:38:51;;;;;;;31.93;16.37;;;11.10;99.90;;;;;;4425669;32;20182;-71
2022/02/15 11:41:18;;;;;;;28.30;15.83;;;11.40;99.90;;;;;;4426212;32;20494;-71
2022/02/15 11:44:00;;;;;;;29.40;15.70;;;11.40;99.90;;;;;;4426612;32;20434;-71
2022/02/15 11:46:37;;;;;;;27.60;15.57;;;12.00;99.90;;;;;;4424621;32;20171;-69
2022/02/15 11:49:18;;;;;;;28.43;15.77;;;11.80;99.90;;;;;;4425410;32;20555;-69
2022/02/15 11:51:49;;;;;;;29.83;16.17;;;11.60;99.90;;;;;;4426854;32;20158;-69
2022/02/15 11:54:17;;;;;;;30.53;15.43;;;10.90;99.90;;;;;;4427929;32;20192;-69
2022/02/15 11:56:48;;;;;;;28.97;15.43;;;10.50;99.90;;;;;;4425216;32;20191;-70
2022/02/15 11:59:20;;;;;;;32.10;16.13;;;10.10;99.90;;;;;;4424994;32;20235;-70
2022/02/15 12:01:58;;;;;;;29.43;15.43;;;10.00;99.90;;;;;;4424370;32;20507;-69
2022/02/15 12:04:25;;;;;;;29.87;15.50;;;9.70;99.90;;;;;;4424508;32;20209;-70
2022/02/15 12:06:53;;;;;;;32.67;15.90;;;9.70;99.90;;;;;;4422383;32;20592;-70
2022/02/15 12:09:27;;;;;;;29.13;15.57;;;9.40;99.90;;;;;;4424689;32;20213;-70
2022/02/15 12:11:55;;;;;;;28.33;16.23;;;9.20;99.90;;;;;;4425100;32;20209;-69
2022/02/15 12:14:24;;;;;;;27.53;15.83;;;9.10;99.90;;;;;;4425739;32;20449;-69
2022/02/15 12:16:59;;;;;;;32.40;15.47;;;8.90;99.90;;;;;;4425780;32;20186;-70
2022/02/15 12:19:27;;;;;;;32.03;15.90;;;8.80;99.90;;;;;;4424240;32;20264;-69
2022/02/15 12:21:56;;;;;;;33.57;16.87;;;8.70;99.90;;;;;;4433065;32;20184;-69
2022/02/15 12:24:24;;;;;;;30.90;16.90;;;8.70;99.90;;;;;;4439899;32;20171;-69
2022/02/15 12:26:53;;;;;;;28.20;15.57;;;8.70;99.90;;;;;;4427592;32;20175;-70
2022/02/15 12:29:20;;;;;;;33.53;15.77;;;8.70;99.90;;;;;;4441334;32;20501;-69
2022/02/15 12:31:56;;;;;;;31.03;16.93;;;8.60;99.90;;;;;;4432954;32;20174;-69
2022/02/15 12:34:24;;;;;;;32.43;16.40;;;8.50;99.90;;;;;;4431937;32;20508;-70
2022/02/15 12:36:51;;;;;;;35.83;17.70;;;8.40;99.90;;;;;;4425292;32;20182;-71
2022/02/15 12:39:20;;;;;;;32.07;16.40;;;8.30;99.90;;;;;;4424076;32;20233;-70
2022/02/15 12:41:50;;;;;;;32.27;16.93;;;8.20;99.90;;;;;;4432353;32;20185;-70
2022/02/15 12:44:17;;;;;;;30.67;17.00;;;8.00;99.90;;;;;;4429901;32;20174;-70
2022/02/15 12:46:45;;;;;;;31.37;16.13;;;7.90;99.90;;;;;;4424755;32;20229;-70
2022/02/15 12:49:12;;;;;;;34.33;16.83;;;7.90;99.90;;;;;;4426881;32;20215;-70
2022/02/15 12:51:39;;;;;;;33.07;16.87;;;7.90;99.90;;;;;;4433357;32;20178;-69